Terminal Aerodrome Forecast
Issued by NWS

Home | Current Version | Previous Version | Text Only | Print | Product List | Glossary On
Versions: 1 2 3 4 5 6 7 8 9 10 11 12
644
FTUS44 KCRP 061124
TAFALI
TAF
KALI 061124Z 0612/0712 VRB03KT P6SM SKC
     FM061500 09006KT P6SM SCT035
     FM061900 09012G16KT P6SM SCT050
     FM070200 12007KT P6SM SCT015 BKN200
     FM070900 VRB03KT P6SM BKN012 OVC200=

USA.gov is the U.S. government's official web portal to all federal, state and local government web resources and services.